Terminal Aerodrome Forecast
Issued by NWS

Home | Current Version | Previous Version | Text Only | Print | Product List | Glossary On
Versions: 1 2 3 4 5 6 7 8 9 10 11 12 13 14 15
000
FTUS46 KMTR 270546 AAA
TAFOAK
TAF AMD
KOAK 270546Z 2706/2812 29006KT P6SM VCSH SCT026 BKN040 BKN070
      TEMPO 2706/2709 30010KT -RA BKN025 OVC040
     FM270900 29005KT P6SM VCSH SCT026 BKN040 BKN070
      TEMPO 2709/2712 30010KT -RA BKN025 OVC040
     FM271600 21006KT P6SM SCT035 SCT060
     FM272300 28012G16KT P6SM SCT100
     FM280500 29009KT P6SM SCT100=

USA.gov is the U.S. government's official web portal to all federal, state and local government web resources and services.